Latest Coastal Weather Observations for Port Fairy

IDV60701

Issued at 4:02 pm EST Thursday 17 August 2017 (issued every 10 minutes, with the page automatically refreshed every 10 minutes)

About coastal observations | Map of coastal stations | Coastal observations for VIC | Marine services | Other Formats
Station Details ID: 090175 Name: PORT FAIRY AWS Lat: -38.39 Lon: 142.23 Height: 10.0 m
Data from the previous 72 hours. | See also: Recent months at Port Fairy
Date/Time
EST
Temp
°C
Wind Pressure Rain since
9am
mm
Weather Cloud Vis
km
Sea
Height
m
Swell
Dir  Spd
kts
Gust
kts
hPa Trend Height
m
Period
s
Dir
17/04:00pm 11.1 NW 12 19 1000.0 - 3.4 - - - - - - -
17/03:30pm 10.2 WNW 12 23 999.9 - 3.4 - - - - - - -
17/03:00pm 10.4 WNW 15 21 999.9 - 2.2 Recent precip. - - - - - -
17/02:37pm 11.6 W 16 27 999.8 - 1.2 - - - - - - -
17/02:30pm 12.2 W 16 26 999.6 - 1.2 - - - - - - -
17/02:00pm 10.0 W 15 25 999.6 - 1.2 - - - - - - -
17/01:33pm 8.5 W 19 33 999.7 - 0.8 - - - - - - -
17/01:30pm 8.2 W 19 33 999.9 - 0.8 - - - - - - -
17/01:28pm 8.3 WNW 17 33 1000.1 - 0.8 - - - - - - -
17/01:05pm 12.5 WNW 15 25 999.8 - 0.4 - - - - - - -
17/01:00pm 12.5 WNW 16 25 999.8 - 0.4 - - - - - - -
17/12:30pm 12.8 WNW 15 26 1000.0 - 0.4 - - - - - - -
17/12:05pm 11.9 WNW 15 25 1000.2 - 0.4 - - - - - - -
17/12:00pm 11.8 NW 13 25 1000.2 - 0.4 Recent precip. - - - - - -
17/11:36am 10.2 WNW 15 28 1000.4 - 0.4 - - - - - - -
17/11:30am 10.1 NW 12 24 1000.4 - 0.4 - - - - - - -
17/11:13am 12.2 WNW 15 26 1000.3 - 0.0 - - - - - - -
17/11:00am 12.7 NW 12 22 1000.3 - 0.0 - - - - - - -
17/10:30am 12.1 NW 12 21 1000.2 - 0.0 - - - - - - -
17/10:00am 11.3 NW 13 20 1000.3 - 0.0 - - - - - - -
17/09:30am 10.4 NW 12 20 1000.3 - 0.0 - - - - - - -
17/09:00am 9.5 NNW 10 20 1000.2 - 10.2 - - - - - - -
17/08:30am 8.3 NNW 11 16 1000.0 - 10.2 - - - - - - -
17/08:00am 8.2 NNW 10 15 999.9 - 10.2 - - - - - - -
17/07:30am 8.0 NNW 9 17 1000.2 - 10.2 - - - - - - -
17/07:00am 8.0 NNW 10 15 999.9 - 10.2 - - - - - - -
17/06:30am 8.0 NW 10 16 999.8 - 10.0 - - - - - - -
17/06:00am 8.4 WNW 15 26 1000.0 - 9.6 Rain - - - - - -
17/05:57am 8.4 WNW 15 26 1000.2 - 9.2 - - - - - - -
17/05:30am 9.5 NNW 10 17 999.6 - 8.2 - - - - - - -
17/05:00am 9.3 NNW 8 15 999.5 - 8.2 - - - - - - -
17/04:30am 8.9 NW 5 7 999.3 - 8.2 - - - - - - -
17/04:00am 8.9 NW 5 7 999.5 - 8.2 - - - - - - -
17/03:30am 8.9 NW 8 11 999.9 - 8.2 - - - - - - -
17/03:00am 8.8 NW 8 13 999.7 - 8.2 - - - - - - -
17/02:30am 8.9 NW 8 13 999.9 - 8.2 - - - - - - -
17/02:00am 9.1 NW 10 15 999.9 - 8.2 - - - - - - -
17/01:30am 9.3 NW 9 15 1000.2 - 8.2 - - - - - - -
17/01:00am 9.4 NW 8 13 1000.2 - 8.2 - - - - - - -
17/12:30am 9.5 NW 8 14 1000.3 - 8.2 - - - - - - -
17/12:00am 9.9 NW 9 15 1000.0 - 8.2 - - - - - - -
 
Date/Time
EST
Temp
°C
Wind Pressure Rain since
9am
mm
Weather Cloud Vis
km
Sea
Height
m
Swell
Dir  Spd
kts
Gust
kts
hPa Trend Height
m
Period
s
Dir
16/11:30pm 9.9 NW 9 15 1000.0 - 8.2 - - - - - - -
16/11:00pm 9.7 NW 9 16 1000.0 - 8.2 - - - - - - -
16/10:30pm 9.6 NW 12 21 1000.4 - 8.2 - - - - - - -
16/10:04pm 9.6 WNW 15 25 1000.7 - 7.2 - - - - - - -
16/10:00pm 9.3 W 16 23 1000.7 - 6.8 - - - - - - -
16/09:47pm 9.8 WNW 17 31 1000.8 - 3.6 - - - - - - -
16/09:30pm 10.2 NNW 12 20 1000.0 - 2.4 - - - - - - -
16/09:00pm 9.7 NNW 11 19 999.6 - 2.4 Recent precip. - - - - - -
16/08:30pm 10.1 NNW 15 27 999.4 - 2.4 - - - - - - -
16/08:27pm 10.2 NNW 15 27 999.6 - 2.4 - - - - - - -
16/08:00pm 10.4 NNW 11 21 1000.0 - 2.0 - - - - - - -
16/07:30pm 10.8 NW 7 11 1000.1 - 1.6 - - - - - - -
16/07:00pm 10.6 NW 8 15 999.9 - 1.6 - - - - - - -
16/06:30pm 11.2 NW 11 18 999.8 - 1.6 - - - - - - -
16/06:00pm 11.1 NW 12 23 999.3 - 1.6 - - - - - - -
16/05:30pm 11.8 WNW 12 23 999.2 - 1.6 - - - - - - -
16/05:00pm 12.0 NW 11 22 999.0 - 1.6 - - - - - - -
16/04:30pm 12.2 WNW 14 25 998.7 - 1.6 - - - - - - -
16/04:00pm 12.4 WNW 17 30 998.7 - 1.2 - - - - - - -
16/03:30pm 14.1 WNW 18 34 998.2 - 1.2 - - - - - - -
16/03:00pm 13.9 WNW 17 29 997.9 - 1.2 - - - - - - -
16/02:30pm 14.5 WNW 22 35 997.7 - 1.2 - - - - - - -
16/02:04pm 14.8 WNW 17 27 997.5 - 1.2 - - - - - - -
16/02:00pm 14.6 WNW 18 27 997.5 - 1.2 - - - - - - -
16/01:30pm 13.3 W 20 33 997.7 - 1.2 - - - - - - -
16/01:00pm 13.5 WNW 19 31 997.6 - 1.2 - - - - - - -
16/12:30pm 13.0 WNW 23 36 997.7 - 1.2 - - - - - - -
16/12:01pm 12.9 WNW 19 43 997.9 - 1.0 - - - - - - -
16/12:00pm 13.1 WNW 19 31 997.8 - 1.0 Recent precip. - - - - - -
16/11:41am 11.6 WNW 19 29 997.6 - 1.0 - - - - - - -
16/11:30am 9.6 W 26 47 997.7 - 1.0 - - - - - - -
16/11:29am 9.6 W 25 47 997.9 - 1.0 - - - - - - -
16/11:24am 10.6 WNW 22 47 997.9 - 0.6 - - - - - - -
16/11:22am 13.6 WNW 18 47 997.6 - 0.2 - - - - - - -
16/11:00am 13.2 WNW 21 32 997.1 - 0.0 - - - - - - -
16/10:30am 13.2 WNW 22 37 996.8 - 0.0 - - - - - - -
16/10:23am 12.8 WNW 16 30 996.7 - 0.0 - - - - - - -
16/10:00am 11.9 NW 12 19 996.5 - 0.0 - - - - - - -
16/09:40am 10.4 NW 15 29 996.3 - 0.0 - - - - - - -
16/09:30am 11.2 NW 11 19 996.4 - 0.0 - - - - - - -
16/09:00am 9.9 WNW 16 28 996.2 - 13.6 Rain - - - - - -
16/08:55am 9.9 NW 15 28 996.1 - 13.6 - - - - - - -
16/08:30am 9.3 NW 9 17 995.7 - 13.2 - - - - - - -
16/08:00am 9.4 NW 10 18 995.2 - 11.8 - - - - - - -
16/07:30am 9.7 WNW 12 21 995.0 - 11.2 - - - - - - -
16/07:00am 10.1 WNW 14 29 994.3 - 10.4 - - - - - - -
16/06:30am 10.9 WNW 21 34 993.7 - 10.0 - - - - - - -
16/06:00am 10.5 WNW 22 35 993.2 - 10.0 Rain - - - - - -
16/05:30am 11.1 W 22 40 992.3 - 9.8 - - - - - - -
16/05:08am 10.2 WNW 15 30 992.0 - 9.8 - - - - - - -
16/05:00am 10.3 NW 13 24 991.7 - 9.2 - - - - - - -
16/04:45am 10.4 NW 15 29 991.3 - 9.2 - - - - - - -
16/04:30am 10.8 NW 14 32 991.1 - 8.8 - - - - - - -
16/04:28am 10.8 NW 15 32 991.1 - 8.8 - - - - - - -
16/04:00am 10.6 NW 13 22 991.1 - 8.6 - - - - - - -
16/03:30am 10.2 NNW 13 21 990.8 - 8.6 - - - - - - -
16/03:00am 10.4 NNW 13 23 991.5 - 8.6 - - - - - - -
16/02:30am 11.1 NW 15 23 991.9 - 8.6 - - - - - - -
16/02:00am 10.6 NW 12 19 992.2 - 8.6 - - - - - - -
16/01:30am 10.5 NNW 12 19 992.1 - 8.6 - - - - - - -
16/01:00am 10.5 NNW 10 16 992.4 - 8.6 - - - - - - -
16/12:30am 10.8 NNW 12 19 992.8 - 8.6 - - - - - - -
16/12:00am 10.8 NNW 11 16 993.6 - 8.6 - - - - - - -
 
Date/Time
EST
Temp
°C
Wind Pressure Rain since
9am
mm
Weather Cloud Vis
km
Sea
Height
m
Swell
Dir  Spd
kts
Gust
kts
hPa Trend Height
m
Period
s
Dir
15/11:30pm 10.7 NNW 9 14 994.0 - 8.6 - - - - - - -
15/11:00pm 10.5 NNW 9 13 994.1 - 8.6 - - - - - - -
15/10:30pm 10.9 NNW 11 15 994.5 - 8.6 - - - - - - -
15/10:00pm 11.3 NW 13 25 994.7 - 8.6 - - - - - - -
15/09:30pm 11.2 NNW 9 15 995.2 - 8.6 - - - - - - -
15/09:00pm 11.3 NNW 10 15 995.5 - 8.6 - - - - - - -
15/08:30pm 12.2 NNW 7 11 995.8 - 8.6 - - - - - - -
15/08:00pm 12.2 NW 8 12 995.9 - 8.6 - - - - - - -
15/07:30pm 12.2 NW 8 15 996.1 - 8.6 - - - - - - -
15/07:00pm 12.6 NW 11 17 996.2 - 8.6 - - - - - - -
15/06:30pm 12.7 NW 10 16 996.3 - 8.0 - - - - - - -
15/06:00pm 13.0 NW 9 12 996.2 - 7.4 Rain - - - - - -
15/05:30pm 13.2 W 14 20 996.0 - 5.8 - - - - - - -
15/05:00pm 13.7 W 13 29 996.0 - 4.2 - - - - - - -
15/04:30pm 16.4 NW 12 20 995.8 - 0.8 - - - - - - -
15/04:00pm 16.9 NW 12 22 995.9 - 0.8 - - - - - - -
15/03:30pm 17.7 NW 12 20 995.8 - 0.8 - - - - - - -
15/03:00pm 17.8 NW 13 21 996.2 - 0.8 - - - - - - -
15/02:30pm 17.4 NW 12 19 996.7 - 0.8 - - - - - - -
15/02:00pm 17.1 NW 12 21 997.0 - 0.8 - - - - - - -
15/01:30pm 17.2 NNW 13 22 997.3 - 0.8 - - - - - - -
15/01:00pm 16.6 NNW 12 20 997.8 - 0.8 - - - - - - -
15/12:30pm 15.9 NNW 14 22 998.5 - 0.8 - - - - - - -
15/12:00pm 16.2 NNW 13 21 999.0 - 0.4 Rain - - - - - -
15/11:30am 17.2 NW 12 23 998.5 - 0.0 - - - - - - -
15/11:00am 16.9 NW 14 23 999.1 - 0.0 - - - - - - -
15/10:30am 16.8 NNW 15 22 998.8 - 0.0 - - - - - - -
15/10:17am 16.4 NNW 15 27 998.9 - 0.0 - - - - - - -
15/10:00am 15.7 NNW 14 24 999.1 - 0.0 - - - - - - -
15/09:30am 14.5 NNW 13 21 999.8 - 0.0 - - - - - - -
15/09:00am 14.2 NNW 13 21 1000.4 - 0.0 - - - - - - -
15/08:30am 14.4 N 12 17 1000.1 - 0.0 - - - - - - -
15/08:00am 13.6 N 10 18 1000.4 - 0.0 - - - - - - -
15/07:30am 13.4 NNE 10 15 1001.0 - 0.0 - - - - - - -
15/07:00am 13.4 N 7 11 1001.3 - 0.0 - - - - - - -
15/06:30am 13.3 N 7 10 1001.8 - 0.0 - - - - - - -
15/06:00am 12.5 N 6 8 1002.8 - 0.0 - - - - - - -
15/05:30am 12.7 N 9 13 1002.8 - 0.0 - - - - - - -
15/05:00am 12.2 N 9 12 1003.9 - 0.0 - - - - - - -
15/04:30am 11.5 NNE 7 10 1003.8 - 0.0 - - - - - - -
15/04:00am 10.4 NNE 6 9 1004.3 - 0.0 - - - - - - -
15/03:30am 10.5 NNE 6 8 1004.7 - 0.0 - - - - - - -
15/03:00am 10.4 NNE 6 10 1005.5 - 0.0 - - - - - - -
15/02:30am 10.3 N 8 12 1006.7 - 0.0 - - - - - - -
15/02:00am 9.9 NNE 7 10 1007.1 - 0.0 - - - - - - -
15/01:30am 9.6 NNE 6 8 1007.7 - 0.0 - - - - - - -
15/01:00am 9.9 NNE 5 7 1008.2 - 0.0 - - - - - - -
15/12:30am 10.4 NNE 6 8 1008.8 - 0.0 - - - - - - -
15/12:00am 10.5 NNE 6 9 1009.1 - 0.0 - - - - - - -
 
Date/Time
EST
Temp
°C
Wind Pressure Rain since
9am
mm
Weather Cloud Vis
km
Sea
Height
m
Swell
Dir  Spd
kts
Gust
kts
hPa Trend Height
m
Period
s
Dir
14/11:30pm 10.4 NNE 5 7 1009.7 - 0.0 - - - - - - -
14/11:00pm 10.4 NNE 5 8 1010.3 - 0.0 - - - - - - -
14/10:30pm 10.4 NNE 5 8 1010.9 - 0.0 - - - - - - -
14/10:00pm 10.8 NNE 5 7 1011.2 - 0.0 - - - - - - -
14/09:30pm 10.8 NE 5 7 1011.7 - 0.0 - - - - - - -
14/09:00pm 10.6 NNE 3 5 1012.0 - 0.0 - - - - - - -
14/08:30pm 11.1 NNE 3 5 1012.4 - 0.0 - - - - - - -
14/08:00pm 11.4 NNE 3 5 1012.3 - 0.0 - - - - - - -
14/07:30pm 11.9 ENE 2 3 1012.4 - 0.0 - - - - - - -
14/07:00pm 12.2 CALM 0 1 1012.6 - 0.0 - - - - - - -
14/06:30pm 11.7 SSE 2 2 1012.6 - 0.0 - - - - - - -
14/06:00pm 13.2 S 1 2 1012.6 - 0.0 - - - - - - -
14/05:30pm 13.9 S 2 3 1012.4 - 0.0 - - - - - - -
14/05:00pm 14.6 SSW 3 5 1012.3 - 0.0 - - - - - - -
14/04:30pm 15.3 SSW 4 5 1012.5 - 0.0 - - - - - - -

Other Formats:

Comma delimited format used in spreadsheet applications
http://www.bom.gov.au/fwo/IDV60701/IDV60701.94830.axf

JavaScript Object Notation format (JSON) in row-major order
http://www.bom.gov.au/fwo/IDV60701/IDV60701.94830.json